Time;durP1;ratioP1;P1;durP2;ratioP2;P2;SDS_P1;SDS_P2;PMS_P1;PMS_P2;Temp;Humidity;BMP_temperature;BMP_pressure;BME280_temperature;BME280_humidity;BME280_pressure;Samples;Min_cycle;Max_cycle;Signal;HPM_P1;HPM_P2
2022/10/06 00:01:16;;;;;;;0.50;0.50;;;13.80;99.90;;;;;;4960673;28;20746;-84
2022/10/06 00:03:45;;;;;;;0.50;0.50;;;13.80;99.90;;;;;;4961377;28;20052;-85
2022/10/06 00:06:14;;;;;;;0.50;0.50;;;13.80;99.90;;;;;;4939541;28;20049;-84
2022/10/06 00:08:41;;;;;;;0.50;0.50;;;13.80;99.90;;;;;;4947816;28;20382;-84
2022/10/06 00:11:18;;;;;;;0.50;0.50;;;13.80;99.90;;;;;;4993008;28;20431;-83
2022/10/06 00:13:44;;;;;;;0.50;0.50;;;13.80;99.90;;;;;;4980788;28;20075;-83
2022/10/06 00:16:23;;;;;;;0.50;0.50;;;13.80;99.90;;;;;;4976263;28;20423;-85
2022/10/06 00:18:49;;;;;;;0.50;0.50;;;13.80;99.90;;;;;;4972491;28;20048;-84
2022/10/06 00:21:19;;;;;;;0.50;0.50;;;13.70;99.90;;;;;;4968291;28;20601;-83
2022/10/06 00:23:48;;;;;;;0.50;0.50;;;13.80;99.90;;;;;;4950480;28;20036;-84
2022/10/06 00:26:17;;;;;;;0.50;0.50;;;13.70;99.90;;;;;;4949127;28;20045;-84
2022/10/06 00:28:59;;;;;;;0.50;0.50;;;13.70;99.90;;;;;;4974576;28;20056;-85
2022/10/06 00:31:25;;;;;;;0.50;0.50;;;13.70;99.90;;;;;;4979040;28;20803;-84
2022/10/06 00:33:54;;;;;;;0.50;0.50;;;13.70;99.90;;;;;;4960354;28;20055;-85
2022/10/06 00:36:23;;;;;;;0.50;0.50;;;13.60;99.90;;;;;;4974596;28;20417;-84
2022/10/06 00:38:49;;;;;;;0.50;0.50;;;13.60;99.90;;;;;;4969593;28;20821;-83
2022/10/06 00:41:18;;;;;;;0.50;0.50;;;13.60;99.90;;;;;;4944570;28;20474;-84
2022/10/06 00:43:51;;;;;;;0.50;0.50;;;13.60;99.90;;;;;;4979270;28;20487;-83
2022/10/06 00:46:51;;;;;;;0.50;0.50;;;13.50;99.90;;;;;;4969356;28;20041;-85
2022/10/06 00:49:27;;;;;;;0.50;0.50;;;13.50;99.90;;;;;;4946335;28;21115;-86
2022/10/06 00:52:00;;;;;;;0.50;0.50;;;13.50;99.90;;;;;;4974195;28;20624;-85
2022/10/06 00:54:31;;;;;;;0.50;0.50;;;13.40;99.90;;;;;;4991852;28;20055;-84
2022/10/06 00:57:00;;;;;;;0.50;0.50;;;13.40;99.90;;;;;;4961599;28;20056;-83
2022/10/06 00:59:26;;;;;;;0.60;0.60;;;13.40;99.90;;;;;;4953024;28;20040;-83
2022/10/06 01:01:59;;;;;;;0.50;0.50;;;13.40;99.90;;;;;;4941381;28;20659;-81
2022/10/06 01:04:26;;;;;;;;;;;13.40;99.90;;;;;;4971509;28;20596;-83
2022/10/06 01:07:00;;;;;;;0.50;0.50;;;13.40;99.90;;;;;;4969205;28;19931;-81
2022/10/06 01:09:31;;;;;;;0.50;0.50;;;13.40;99.90;;;;;;4974693;28;20033;-83
2022/10/06 01:12:00;;;;;;;0.60;0.60;;;13.40;99.90;;;;;;4972834;28;20060;-82
2022/10/06 01:14:35;;;;;;;0.50;0.50;;;13.40;99.90;;;;;;4973412;28;20271;-83
2022/10/06 01:17:27;;;;;;;0.50;0.50;;;13.40;99.90;;;;;;4961782;28;20382;-82
2022/10/06 01:20:08;;;;;;;0.50;0.50;;;13.30;99.90;;;;;;4954598;28;20885;-84
2022/10/06 01:22:36;;;;;;;0.60;0.60;;;13.30;99.90;;;;;;4965932;28;20048;-81
2022/10/06 01:25:04;;;;;;;0.50;0.50;;;13.30;99.90;;;;;;4945423;28;20553;-81
2022/10/06 01:27:52;;;;;;;0.50;0.50;;;13.30;99.90;;;;;;4970884;28;20109;-81
2022/10/06 01:30:29;;;;;;;0.50;0.50;;;13.20;99.90;;;;;;4969971;28;20219;-81
2022/10/06 01:32:57;;;;;;;0.50;0.50;;;13.20;99.90;;;;;;4969288;28;20486;-82
2022/10/06 01:35:26;;;;;;;0.60;0.60;;;13.10;99.90;;;;;;4966078;28;20402;-82
2022/10/06 01:37:53;;;;;;;0.50;0.50;;;13.10;99.90;;;;;;4964338;28;20078;-82
2022/10/06 01:40:24;;;;;;;0.50;0.50;;;13.10;99.90;;;;;;4968814;28;20473;-84
2022/10/06 01:42:50;;;;;;;0.50;0.50;;;13.10;99.90;;;;;;4954737;28;20477;-82
2022/10/06 01:45:16;;;;;;;0.60;0.60;;;13.10;99.90;;;;;;4959607;28;21034;-82
2022/10/06 01:47:46;;;;;;;0.50;0.50;;;13.10;99.90;;;;;;4940177;28;20451;-84
2022/10/06 01:50:12;;;;;;;0.50;0.50;;;13.20;99.90;;;;;;4915108;28;20076;-81
2022/10/06 01:52:38;;;;;;;0.60;0.60;;;13.20;99.90;;;;;;4981143;28;20087;-82
2022/10/06 01:55:05;;;;;;;0.50;0.50;;;13.20;99.90;;;;;;4971109;28;20154;-84
2022/10/06 01:57:37;;;;;;;0.50;0.50;;;13.20;99.90;;;;;;4971404;28;20106;-84
2022/10/06 02:00:05;;;;;;;0.50;0.50;;;13.20;99.90;;;;;;4950250;28;20638;-81
2022/10/06 02:02:31;;;;;;;0.50;0.50;;;13.30;99.90;;;;;;4966886;28;20053;-83
2022/10/06 02:04:59;;;;;;;0.50;0.50;;;13.20;99.90;;;;;;4965005;28;20040;-84
2022/10/06 02:07:30;;;;;;;0.50;0.50;;;13.10;99.90;;;;;;4974940;28;20127;-84
2022/10/06 02:09:59;;;;;;;0.50;0.50;;;13.10;99.90;;;;;;4960268;28;20394;-83
2022/10/06 02:12:25;;;;;;;0.50;0.50;;;13.10;99.90;;;;;;4968527;28;20048;-83
2022/10/06 02:14:53;;;;;;;0.57;0.57;;;13.00;99.90;;;;;;4954929;28;20052;-83
2022/10/06 02:17:21;;;;;;;0.60;0.60;;;13.00;99.90;;;;;;4961245;28;20114;-82
2022/10/06 02:19:50;;;;;;;0.50;0.50;;;13.00;99.90;;;;;;4965095;28;20065;-83
2022/10/06 02:22:17;;;;;;;0.60;0.60;;;12.90;99.90;;;;;;4970220;28;20052;-83
2022/10/06 02:24:48;;;;;;;0.60;0.60;;;12.90;99.90;;;;;;4958566;28;20045;-83
2022/10/06 02:27:14;;;;;;;0.50;0.50;;;12.80;99.90;;;;;;4971955;28;20114;-82
2022/10/06 02:29:42;;;;;;;0.50;0.50;;;12.80;99.90;;;;;;4976745;28;20453;-81
2022/10/06 02:32:08;;;;;;;0.50;0.50;;;12.80;99.90;;;;;;4967670;28;20882;-83
2022/10/06 02:34:34;;;;;;;0.60;0.60;;;12.80;99.90;;;;;;4977001;28;20056;-82
2022/10/06 02:37:09;;;;;;;0.50;0.50;;;12.90;99.90;;;;;;4935242;28;20547;-82
2022/10/06 02:39:36;;;;;;;0.60;0.60;;;12.80;99.90;;;;;;4974949;28;20048;-85
2022/10/06 02:42:04;;;;;;;0.60;0.60;;;12.80;99.90;;;;;;4980090;28;20048;-83
2022/10/06 02:44:33;;;;;;;0.50;0.50;;;12.70;99.90;;;;;;4974574;28;20148;-83
2022/10/06 02:46:59;;;;;;;0.50;0.50;;;12.70;99.90;;;;;;4980303;28;20158;-83
2022/10/06 02:49:28;;;;;;;0.60;0.60;;;12.70;99.90;;;;;;4968839;28;20629;-85
2022/10/06 02:51:55;;;;;;;0.50;0.50;;;12.70;99.90;;;;;;4949794;28;20044;-82
2022/10/06 02:54:28;;;;;;;0.60;0.60;;;12.60;99.90;;;;;;4970573;28;20040;-85
2022/10/06 02:57:03;;;;;;;0.50;0.50;;;12.50;99.90;;;;;;4956276;28;20076;-83
2022/10/06 02:59:38;;;;;;;0.50;0.50;;;12.60;99.90;;;;;;4953738;28;20133;-83
2022/10/06 03:02:04;;;;;;;0.60;0.60;;;12.50;99.90;;;;;;4971121;28;20527;-82
2022/10/06 03:04:30;;;;;;;0.50;0.50;;;12.50;99.90;;;;;;4969748;28;20294;-81
2022/10/06 03:06:56;;;;;;;0.60;0.60;;;12.50;99.90;;;;;;4960856;28;20467;-83
2022/10/06 03:09:22;;;;;;;0.50;0.50;;;12.50;99.90;;;;;;4950703;28;20048;-84
2022/10/06 03:11:48;;;;;;;0.50;0.50;;;12.40;99.90;;;;;;4954772;28;20048;-83
2022/10/06 03:14:14;;;;;;;0.50;0.50;;;12.40;99.90;;;;;;4955383;28;20696;-81
2022/10/06 03:16:42;;;;;;;0.60;0.60;;;12.40;99.90;;;;;;4965177;28;20676;-84
2022/10/06 03:19:09;;;;;;;0.50;0.50;;;12.40;99.90;;;;;;4966134;28;20412;-82
2022/10/06 03:21:38;;;;;;;0.50;0.50;;;12.40;99.90;;;;;;4960083;28;20470;-83
2022/10/06 03:24:04;;;;;;;0.50;0.50;;;12.40;99.90;;;;;;4951131;28;20521;-83
2022/10/06 03:26:36;;;;;;;0.50;0.50;;;12.30;99.90;;;;;;4958478;28;20159;-83
2022/10/06 03:29:02;;;;;;;0.60;0.60;;;12.30;99.90;;;;;;4962582;28;20494;-83
2022/10/06 03:31:28;;;;;;;0.50;0.50;;;12.30;99.90;;;;;;4973500;28;20238;-81
2022/10/06 03:33:55;;;;;;;0.50;0.50;;;12.20;99.90;;;;;;4964778;28;20052;-82
2022/10/06 03:36:32;;;;;;;0.50;0.50;;;12.20;99.90;;;;;;4963870;28;20406;-84
2022/10/06 03:38:58;;;;;;;0.50;0.50;;;12.20;99.90;;;;;;4969738;28;20090;-82
2022/10/06 03:41:29;;;;;;;0.50;0.50;;;12.20;99.90;;;;;;4955440;28;20056;-82
2022/10/06 03:43:57;;;;;;;0.60;0.60;;;12.20;99.90;;;;;;4961576;28;20879;-84
2022/10/06 03:46:26;;;;;;;0.50;0.50;;;12.20;99.90;;;;;;4959866;28;20143;-81
2022/10/06 03:48:53;;;;;;;0.50;0.50;;;12.10;99.90;;;;;;4953052;28;20069;-81
2022/10/06 03:51:26;;;;;;;0.60;0.60;;;12.10;99.90;;;;;;4963960;28;20080;-81
2022/10/06 03:53:58;;;;;;;0.60;0.60;;;12.00;99.90;;;;;;4970247;28;20057;-83
2022/10/06 03:56:28;;;;;;;0.50;0.50;;;12.00;99.90;;;;;;4958554;28;20064;-82
2022/10/06 03:59:01;;;;;;;0.50;0.50;;;12.00;99.90;;;;;;4958666;28;20037;-82
2022/10/06 04:01:38;;;;;;;0.60;0.60;;;12.00;99.90;;;;;;4951084;28;21002;-81
2022/10/06 04:04:08;;;;;;;0.60;0.60;;;12.00;99.90;;;;;;4974631;28;20607;-85
2022/10/06 04:06:37;;;;;;;0.60;0.60;;;12.00;99.90;;;;;;4990089;28;20040;-82
2022/10/06 04:09:05;;;;;;;0.60;0.60;;;12.00;99.90;;;;;;4968185;28;20135;-83
2022/10/06 04:11:34;;;;;;;0.50;0.50;;;12.00;99.90;;;;;;4964076;28;20612;-84
2022/10/06 04:14:03;;;;;;;0.60;0.60;;;12.00;99.90;;;;;;4968264;28;20593;-81
2022/10/06 04:16:41;;;;;;;0.50;0.50;;;11.90;99.90;;;;;;4958624;28;20049;-82
2022/10/06 04:19:12;;;;;;;0.60;0.60;;;11.80;99.90;;;;;;4943907;28;20062;-83
2022/10/06 04:21:39;;;;;;;0.50;0.50;;;11.80;99.90;;;;;;4960871;28;20299;-82
2022/10/06 04:24:06;;;;;;;0.55;0.55;;;11.80;99.90;;;;;;4949604;28;20052;-82
2022/10/06 04:26:45;;;;;;;0.60;0.60;;;11.80;99.90;;;;;;4951807;28;20503;-81
2022/10/06 04:29:12;;;;;;;0.50;0.50;;;11.80;99.90;;;;;;4960425;28;20064;-81
2022/10/06 04:31:39;;;;;;;0.50;0.50;;;11.70;99.90;;;;;;4963804;28;20084;-83
2022/10/06 04:34:06;;;;;;;0.50;0.50;;;11.70;99.90;;;;;;4946403;28;20071;-82
2022/10/06 04:36:37;;;;;;;0.60;0.60;;;11.70;99.90;;;;;;4987878;28;20048;-82
2022/10/06 04:39:04;;;;;;;0.50;0.50;;;11.60;99.90;;;;;;4965736;28;20052;-81
2022/10/06 04:41:35;;;;;;;0.52;0.52;;;11.50;99.90;;;;;;4961137;28;20049;-83
2022/10/06 04:44:04;;;;;;;0.60;0.60;;;11.60;99.90;;;;;;4977024;28;20113;-82
2022/10/06 04:46:32;;;;;;;0.60;0.60;;;11.50;99.90;;;;;;4966164;28;20820;-83
2022/10/06 04:48:59;;;;;;;0.60;0.60;;;11.50;99.90;;;;;;4963588;28;20053;-82
2022/10/06 04:51:26;;;;;;;0.50;0.50;;;11.50;99.90;;;;;;4965353;28;20064;-81
2022/10/06 04:53:55;;;;;;;0.60;0.60;;;11.50;99.90;;;;;;4964690;28;20076;-82
2022/10/06 04:56:27;;;;;;;0.60;0.60;;;11.40;99.90;;;;;;4940959;28;20460;-80
2022/10/06 04:58:54;;;;;;;0.60;0.60;;;11.40;99.90;;;;;;4968364;28;20067;-82
2022/10/06 05:01:31;;;;;;;0.60;0.60;;;11.40;99.90;;;;;;4963652;28;20045;-81
2022/10/06 05:03:59;;;;;;;0.50;0.50;;;11.30;99.90;;;;;;4972673;28;20075;-81
2022/10/06 05:06:38;;;;;;;0.60;0.60;;;11.30;99.90;;;;;;4970039;28;20734;-80
2022/10/06 05:09:11;;;;;;;0.60;0.60;;;11.30;99.90;;;;;;4960410;28;20501;-83
2022/10/06 05:11:39;;;;;;;0.60;0.60;;;11.20;99.90;;;;;;4954666;28;20254;-81
2022/10/06 05:14:05;;;;;;;0.60;0.60;;;11.20;99.90;;;;;;4959099;28;20967;-81
2022/10/06 05:16:31;;;;;;;0.50;0.50;;;11.20;99.90;;;;;;4961055;28;20041;-82
2022/10/06 05:18:58;;;;;;;0.60;0.60;;;11.20;99.90;;;;;;4959049;28;20052;-82
2022/10/06 05:21:29;;;;;;;0.60;0.60;;;11.10;99.90;;;;;;4924744;28;20542;-81
2022/10/06 05:24:03;;;;;;;0.50;0.50;;;11.00;99.90;;;;;;4966768;28;20045;-82
2022/10/06 05:26:30;;;;;;;;;;;11.00;99.90;;;;;;4965020;28;20638;-82
2022/10/06 05:28:57;;;;;;;0.60;0.60;;;11.00;99.90;;;;;;4947683;28;20026;-82
2022/10/06 05:31:25;;;;;;;0.60;0.60;;;11.10;99.90;;;;;;4950311;28;20450;-81
2022/10/06 05:33:52;;;;;;;0.50;0.50;;;11.00;99.90;;;;;;4972925;28;20048;-81
2022/10/06 05:36:20;;;;;;;0.50;0.50;;;11.00;99.90;;;;;;4950361;28;20479;-82
2022/10/06 05:38:47;;;;;;;0.50;0.50;;;11.00;99.90;;;;;;4953277;28;20129;-81
2022/10/06 05:41:16;;;;;;;0.50;0.50;;;11.00;99.90;;;;;;4956667;28;20052;-81
2022/10/06 05:43:42;;;;;;;0.50;0.50;;;10.90;99.90;;;;;;4964978;28;20449;-82
2022/10/06 05:46:16;;;;;;;0.60;0.60;;;10.80;99.90;;;;;;4967643;28;20055;-81
2022/10/06 05:48:55;;;;;;;0.60;0.60;;;10.90;99.90;;;;;;4966288;28;20556;-82
2022/10/06 05:51:25;;;;;;;0.60;0.60;;;10.90;99.90;;;;;;4967831;28;20122;-81
2022/10/06 05:53:50;;;;;;;0.50;0.50;;;10.90;99.90;;;;;;4968068;28;20056;-81
2022/10/06 05:56:23;;;;;;;0.60;0.60;;;11.00;99.90;;;;;;4968816;28;20398;-81
2022/10/06 05:58:51;;;;;;;0.50;0.50;;;11.00;99.90;;;;;;4962943;28;20064;-82
2022/10/06 06:01:23;;;;;;;0.60;0.60;;;11.00;99.90;;;;;;4966654;28;20036;-81
2022/10/06 06:03:51;;;;;;;0.57;0.57;;;11.00;99.90;;;;;;4958577;28;20541;-82
2022/10/06 06:06:24;;;;;;;0.60;0.60;;;11.00;99.90;;;;;;4943164;28;20481;-81
2022/10/06 06:08:58;;;;;;;0.60;0.60;;;11.10;99.90;;;;;;4963917;28;20106;-82
2022/10/06 06:11:26;;;;;;;0.60;0.60;;;11.10;99.90;;;;;;4959429;28;20254;-79
2022/10/06 06:14:00;;;;;;;0.50;0.50;;;11.10;99.90;;;;;;4948370;28;20053;-81
2022/10/06 06:16:27;;;;;;;;;;;11.20;99.90;;;;;;4978509;28;20091;-82
2022/10/06 06:18:53;;;;;;;0.50;0.50;;;11.30;99.90;;;;;;4959392;28;20425;-82
2022/10/06 06:21:20;;;;;;;0.50;0.50;;;11.30;99.90;;;;;;4968356;28;20040;-83
2022/10/06 06:23:55;;;;;;;0.50;0.50;;;11.30;99.90;;;;;;4969353;28;20196;-82
2022/10/06 06:26:27;;;;;;;0.60;0.60;;;11.40;99.90;;;;;;4967529;28;20041;-81
2022/10/06 06:28:59;;;;;;;0.60;0.60;;;11.50;99.90;;;;;;4961986;28;20060;-81
2022/10/06 06:31:28;;;;;;;0.60;0.60;;;11.60;99.90;;;;;;4959074;28;20434;-80
2022/10/06 06:33:56;;;;;;;0.60;0.60;;;11.60;99.90;;;;;;4967276;28;20141;-79
2022/10/06 06:36:24;;;;;;;0.50;0.50;;;11.70;99.90;;;;;;4960407;28;20454;-81
2022/10/06 06:38:52;;;;;;;0.60;0.60;;;11.80;99.90;;;;;;4967951;28;20513;-81
2022/10/06 06:41:26;;;;;;;0.60;0.60;;;11.80;99.90;;;;;;4963303;28;20240;-79
2022/10/06 06:43:53;;;;;;;0.50;0.50;;;11.90;99.90;;;;;;4966676;28;20455;-83
2022/10/06 06:46:23;;;;;;;0.60;0.60;;;12.00;99.90;;;;;;4968164;28;20051;-82
2022/10/06 06:48:54;;;;;;;0.60;0.60;;;12.10;99.90;;;;;;4970753;28;20064;-81
2022/10/06 06:51:22;;;;;;;0.60;0.60;;;12.10;99.90;;;;;;4973549;28;20048;-83
2022/10/06 06:53:50;;;;;;;0.50;0.50;;;12.20;99.90;;;;;;4981696;28;20095;-80
2022/10/06 06:56:22;;;;;;;0.60;0.60;;;12.30;99.90;;;;;;4966120;28;20430;-84
2022/10/06 06:58:52;;;;;;;0.50;0.50;;;12.30;99.90;;;;;;4977695;28;20263;-81
2022/10/06 07:01:20;;;;;;;0.60;0.60;;;12.50;99.90;;;;;;4952550;28;20045;-79
2022/10/06 07:03:52;;;;;;;0.60;0.60;;;12.50;99.90;;;;;;4969117;28;20049;-82
2022/10/06 07:06:19;;;;;;;0.60;0.60;;;12.60;99.90;;;;;;4974832;28;20091;-83
2022/10/06 07:08:46;;;;;;;0.50;0.50;;;12.70;99.90;;;;;;4971469;28;20605;-83
2022/10/06 07:11:35;;;;;;;0.60;0.60;;;12.70;99.90;;;;;;4972925;28;20564;-83
2022/10/06 07:14:03;;;;;;;0.60;0.60;;;12.80;99.90;;;;;;4967915;28;20056;-82
2022/10/06 07:25:05;;;;;;;0.60;0.60;;;13.10;99.90;;;;;;4976487;28;20506;-83
2022/10/06 07:27:38;;;;;;;0.60;0.60;;;13.20;99.90;;;;;;4954931;28;20064;-85
2022/10/06 07:30:05;;;;;;;0.60;0.60;;;13.40;99.90;;;;;;4973697;28;20744;-82
2022/10/06 07:32:31;;;;;;;0.55;0.55;;;13.40;99.90;;;;;;4973121;28;20953;-83
2022/10/06 07:34:57;;;;;;;0.60;0.60;;;13.60;99.90;;;;;;4976110;28;20254;-83
2022/10/06 07:37:24;;;;;;;0.50;0.50;;;13.60;99.90;;;;;;4970287;28;20136;-81
2022/10/06 07:39:52;;;;;;;0.57;0.57;;;13.70;99.90;;;;;;4944531;28;20132;-84
2022/10/06 07:42:18;;;;;;;0.57;0.57;;;13.80;99.90;;;;;;4975451;28;20104;-81
2022/10/06 07:47:37;;;;;;;0.60;0.60;;;14.00;99.90;;;;;;4950658;28;20925;-82
2022/10/06 07:50:11;;;;;;;0.50;0.50;;;14.10;99.90;;;;;;4964530;28;20787;-83
2022/10/06 07:52:38;;;;;;;;;;;14.20;99.90;;;;;;4948055;28;20290;-83
2022/10/06 07:55:14;;;;;;;0.57;0.57;;;14.20;99.90;;;;;;4976628;28;20337;-84
2022/10/06 07:57:44;;;;;;;0.50;0.50;;;14.30;99.90;;;;;;4964217;28;20617;-81
2022/10/06 08:00:14;;;;;;;0.50;0.50;;;14.40;99.90;;;;;;4946593;28;20064;-79
2022/10/06 08:02:42;;;;;;;0.50;0.50;;;14.50;99.90;;;;;;4972331;28;20088;-82
2022/10/06 08:05:08;;;;;;;0.50;0.50;;;14.50;99.90;;;;;;4966684;28;20385;-83
2022/10/06 08:07:34;;;;;;;0.60;0.60;;;14.70;99.90;;;;;;4962691;28;20546;-84
2022/10/06 08:10:33;;;;;;;0.50;0.50;;;14.70;99.90;;;;;;4949798;28;20040;-85
2022/10/06 08:13:02;;;;;;;0.50;0.50;;;14.90;99.90;;;;;;4957011;28;20428;-84
2022/10/06 08:15:31;;;;;;;0.60;0.60;;;15.00;99.90;;;;;;4972816;28;20534;-80
2022/10/06 08:18:01;;;;;;;0.50;0.50;;;14.90;99.90;;;;;;4951195;28;20525;-83
2022/10/06 08:20:27;;;;;;;0.50;0.50;;;15.00;99.90;;;;;;4965016;28;20048;-84
2022/10/06 08:22:59;;;;;;;0.50;0.50;;;15.20;99.90;;;;;;4973384;28;20099;-83
2022/10/06 08:25:26;;;;;;;0.50;0.50;;;15.20;99.90;;;;;;4968012;28;20454;-83
2022/10/06 08:27:51;;;;;;;0.50;0.50;;;15.40;99.90;;;;;;4926465;28;20928;-81
2022/10/06 08:30:25;;;;;;;0.50;0.50;;;15.30;99.90;;;;;;4957004;28;20053;-87
2022/10/06 08:32:51;;;;;;;0.50;0.50;;;15.40;99.90;;;;;;4942066;28;20147;-85
2022/10/06 08:35:17;;;;;;;0.50;0.50;;;15.50;99.90;;;;;;4960828;28;20053;-83
2022/10/06 08:37:44;;;;;;;0.50;0.50;;;15.60;99.90;;;;;;4957592;28;20600;-82
2022/10/06 08:40:14;;;;;;;0.50;0.50;;;15.70;99.90;;;;;;4960681;28;20053;-81
2022/10/06 08:42:49;;;;;;;0.50;0.50;;;15.70;99.90;;;;;;4979908;28;20053;-85
2022/10/06 08:45:32;;;;;;;0.50;0.50;;;15.70;99.90;;;;;;4975046;28;20878;-82
2022/10/06 08:48:39;;;;;;;0.50;0.50;;;15.80;99.90;;;;;;4966065;28;20839;-84
2022/10/06 08:51:18;;;;;;;0.50;0.50;;;15.90;99.90;;;;;;4975590;28;20457;-85
2022/10/06 08:54:07;;;;;;;0.47;0.47;;;15.80;99.90;;;;;;4974436;28;20049;-83
2022/10/06 08:57:06;;;;;;;0.50;0.50;;;16.00;99.90;;;;;;4979519;28;20251;-84
2022/10/06 08:59:34;;;;;;;0.50;0.50;;;15.90;99.90;;;;;;4969958;28;20132;-81
2022/10/06 09:02:24;;;;;;;0.50;0.50;;;16.10;99.90;;;;;;4980296;28;20035;-82
2022/10/06 09:04:58;;;;;;;0.40;0.40;;;16.10;99.90;;;;;;4983090;28;20091;-84
2022/10/06 09:07:47;;;;;;;0.50;0.50;;;16.20;99.90;;;;;;4982382;28;20807;-83
2022/10/06 09:10:32;;;;;;;0.40;0.40;;;16.20;99.90;;;;;;4962006;28;20494;-79
2022/10/06 09:13:24;;;;;;;0.50;0.50;;;16.50;99.90;;;;;;4969209;28;20082;-83
2022/10/06 09:16:08;;;;;;;0.50;0.50;;;16.40;99.90;;;;;;4968320;28;20382;-84
2022/10/06 09:18:48;;;;;;;0.40;0.40;;;16.40;99.90;;;;;;4977591;28;20060;-85
2022/10/06 09:21:22;;;;;;;0.40;0.40;;;16.50;99.90;;;;;;4981346;28;20457;-82
2022/10/06 09:24:15;;;;;;;0.40;0.40;;;16.50;99.90;;;;;;4979377;28;20052;-80
2022/10/06 09:26:43;;;;;;;0.50;0.50;;;16.50;99.90;;;;;;4975903;28;20346;-80
2022/10/06 09:29:13;;;;;;;0.50;0.50;;;16.60;99.90;;;;;;4997345;28;20044;-83
2022/10/06 09:31:49;;;;;;;0.40;0.40;;;16.60;99.90;;;;;;4966038;28;20602;-83
2022/10/06 09:34:24;;;;;;;0.40;0.40;;;16.80;99.90;;;;;;4973348;28;20899;-83
2022/10/06 09:37:08;;;;;;;0.50;0.50;;;16.80;99.90;;;;;;4961700;28;20944;-80
2022/10/06 09:39:36;;;;;;;0.45;0.45;;;16.90;99.90;;;;;;4982307;28;20059;-81
2022/10/06 09:42:11;;;;;;;0.40;0.40;;;16.90;99.90;;;;;;4989577;28;20056;-82
2022/10/06 09:44:56;;;;;;;0.40;0.40;;;16.90;99.90;;;;;;4967730;28;20045;-81
2022/10/06 09:47:35;;;;;;;0.40;0.40;;;17.30;99.90;;;;;;4967663;28;20996;-81
2022/10/06 09:50:21;;;;;;;0.50;0.50;;;17.30;99.90;;;;;;4967062;28;20052;-82
2022/10/06 09:53:07;;;;;;;0.50;0.50;;;16.90;99.90;;;;;;4984257;28;20082;-81
2022/10/06 09:55:36;;;;;;;0.50;0.50;;;16.80;99.90;;;;;;4982734;28;21171;-82
2022/10/06 09:58:15;;;;;;;0.40;0.40;;;16.90;99.90;;;;;;4949169;28;20581;-85
2022/10/06 10:00:59;;;;;;;0.50;0.50;;;16.90;99.90;;;;;;4960673;28;20481;-85
2022/10/06 10:03:49;;;;;;;0.40;0.40;;;16.50;99.90;;;;;;4964475;28;20125;-80
2022/10/06 10:06:28;;;;;;;0.40;0.40;;;16.60;99.90;;;;;;4985978;28;20113;-84
2022/10/06 10:09:17;;;;;;;0.50;0.50;;;16.90;99.90;;;;;;4968671;28;20048;-83
2022/10/06 10:12:26;;;;;;;0.40;0.40;;;16.90;99.90;;;;;;4976200;28;20381;-85
2022/10/06 10:15:37;;;;;;;0.40;0.40;;;16.70;99.90;;;;;;4990004;28;20062;-85
2022/10/06 10:18:10;;;;;;;0.40;0.40;;;16.90;99.90;;;;;;4977468;28;20988;-82
2022/10/06 10:21:07;;;;;;;0.40;0.40;;;17.10;99.90;;;;;;4961874;28;20374;-86
2022/10/06 10:24:13;;;;;;;0.40;0.40;;;17.20;99.90;;;;;;4984902;28;20245;-84
2022/10/06 10:27:03;;;;;;;0.40;0.40;;;17.10;99.90;;;;;;4963270;28;20061;-84
2022/10/06 10:29:51;;;;;;;0.40;0.40;;;17.20;99.90;;;;;;5002360;28;20060;-86
2022/10/06 10:32:33;;;;;;;0.50;0.50;;;17.10;99.90;;;;;;4964378;28;20525;-85
2022/10/06 10:35:25;;;;;;;0.50;0.50;;;16.50;99.90;;;;;;4979345;28;20053;-85
2022/10/06 10:38:39;;;;;;;0.50;0.50;;;16.80;99.90;;;;;;4962761;28;20479;-85
2022/10/06 10:41:27;;;;;;;0.50;0.50;;;16.60;99.90;;;;;;4976110;28;20048;-82
2022/10/06 10:44:08;;;;;;;0.40;0.40;;;17.00;99.90;;;;;;4978444;28;20048;-82
2022/10/06 10:46:46;;;;;;;0.50;0.50;;;17.10;99.90;;;;;;4956734;28;20059;-82
2022/10/06 10:49:26;;;;;;;0.50;0.50;;;17.20;99.90;;;;;;4961416;28;20080;-89
2022/10/06 10:52:10;;;;;;;0.47;0.47;;;17.30;99.90;;;;;;4971752;28;20087;-83
2022/10/06 10:54:45;;;;;;;0.40;0.40;;;17.60;99.90;;;;;;4978898;28;20798;-82
2022/10/06 10:57:27;;;;;;;0.40;0.40;;;17.20;99.90;;;;;;4974600;28;20052;-87
2022/10/06 11:00:10;;;;;;;0.50;0.50;;;17.10;99.90;;;;;;4976539;28;20068;-85
2022/10/06 11:02:39;;;;;;;0.50;0.50;;;17.40;99.90;;;;;;4982314;28;20803;-83
2022/10/06 11:05:16;;;;;;;0.45;0.45;;;17.10;99.90;;;;;;4984275;28;20041;-85
2022/10/06 11:08:10;;;;;;;0.40;0.40;;;17.30;99.90;;;;;;4960272;28;20060;-83
2022/10/06 11:11:08;;;;;;;0.43;0.43;;;17.10;99.90;;;;;;4976303;28;20048;-85
2022/10/06 11:13:45;;;;;;;0.47;0.47;;;17.30;99.90;;;;;;4959216;28;20072;-84
2022/10/06 11:16:17;;;;;;;0.43;0.43;;;17.10;99.90;;;;;;4974929;28;20076;-83
2022/10/06 11:19:08;;;;;;;0.50;0.50;;;17.30;99.90;;;;;;4962620;28;20796;-86
2022/10/06 11:21:45;;;;;;;0.50;0.50;;;18.00;99.90;;;;;;4984303;28;20607;-87
2022/10/06 11:24:36;;;;;;;0.43;0.43;;;18.10;99.90;;;;;;4963362;28;21004;-86
2022/10/06 11:27:17;;;;;;;0.45;0.45;;;18.10;99.90;;;;;;4963852;28;20068;-82
2022/10/06 11:30:04;;;;;;;0.40;0.40;;;18.60;99.90;;;;;;4979987;28;20167;-82
2022/10/06 11:32:45;;;;;;;0.40;0.40;;;19.00;99.90;;;;;;4991893;28;20045;-85
2022/10/06 11:35:25;;;;;;;0.40;0.40;;;19.00;99.90;;;;;;4983850;28;20493;-83
2022/10/06 11:38:03;;;;;;;0.40;0.40;;;18.90;99.90;;;;;;4964824;28;20048;-82
2022/10/06 11:40:48;;;;;;;0.40;0.40;;;18.80;99.90;;;;;;4963038;28;20298;-82
2022/10/06 11:43:39;;;;;;;0.40;0.40;;;19.10;99.90;;;;;;4957911;28;20044;-83
2022/10/06 11:46:12;;;;;;;0.40;0.40;;;19.30;99.90;;;;;;4975485;28;20044;-83
2022/10/06 11:48:41;;;;;;;0.40;0.40;;;19.10;99.90;;;;;;4975483;28;20526;-80
2022/10/06 11:51:22;;;;;;;0.40;0.40;;;18.90;99.90;;;;;;4938486;28;20942;-83
2022/10/06 11:54:14;;;;;;;0.40;0.40;;;18.50;99.90;;;;;;4975635;28;20067;-85
2022/10/06 11:56:42;;;;;;;0.40;0.40;;;18.80;99.90;;;;;;4971744;28;20040;-82
2022/10/06 11:59:23;;;;;;;0.50;0.50;;;18.20;99.90;;;;;;4951020;28;20403;-80
2022/10/06 12:01:52;;;;;;;0.40;0.40;;;18.70;99.90;;;;;;4977562;28;20040;-83
2022/10/06 12:04:25;;;;;;;0.40;0.40;;;18.90;99.90;;;;;;4969893;28;20253;-84
2022/10/06 12:06:55;;;;;;;0.40;0.40;;;19.00;99.90;;;;;;4958473;28;20083;-82
2022/10/06 12:09:55;;;;;;;0.40;0.40;;;18.80;99.90;;;;;;4972602;28;20040;-83
2022/10/06 12:12:30;;;;;;;0.40;0.40;;;18.90;99.90;;;;;;4963874;28;20055;-82
2022/10/06 12:15:02;;;;;;;0.50;0.50;;;18.60;99.90;;;;;;4985027;28;20055;-83
2022/10/06 12:18:02;;;;;;;0.40;0.40;;;18.60;99.90;;;;;;4961423;28;20207;-82
2022/10/06 12:20:42;;;;;;;0.40;0.40;;;19.10;99.90;;;;;;5001796;28;20047;-80
2022/10/06 12:23:19;;;;;;;0.40;0.40;;;19.10;99.90;;;;;;4959803;28;20055;-84
2022/10/06 12:25:51;;;;;;;0.40;0.40;;;19.20;99.90;;;;;;4962136;28;20371;-84
2022/10/06 12:28:42;;;;;;;0.40;0.40;;;19.40;99.90;;;;;;4997608;28;20577;-84
2022/10/06 12:31:25;;;;;;;0.40;0.40;;;19.40;99.90;;;;;;4959952;28;20622;-81
2022/10/06 12:33:54;;;;;;;0.40;0.40;;;19.60;99.90;;;;;;4962724;28;20110;-85
2022/10/06 12:36:42;;;;;;;0.40;0.40;;;19.30;99.90;;;;;;4949763;28;20127;-85
2022/10/06 12:39:25;;;;;;;0.40;0.40;;;19.70;99.90;;;;;;4953622;28;20102;-83
2022/10/06 12:42:00;;;;;;;0.40;0.40;;;19.60;99.90;;;;;;4959423;28;20048;-80
2022/10/06 12:44:28;;;;;;;0.40;0.40;;;19.80;99.90;;;;;;4987674;28;20804;-80
2022/10/06 12:46:59;;;;;;;0.40;0.40;;;19.70;99.90;;;;;;4986241;28;20091;-81
2022/10/06 12:49:35;;;;;;;0.40;0.40;;;19.60;99.90;;;;;;4963405;28;20036;-83
2022/10/06 12:52:30;;;;;;;0.40;0.40;;;19.40;99.90;;;;;;4954377;28;20497;-82
2022/10/06 12:55:16;;;;;;;0.40;0.40;;;19.60;99.90;;;;;;4985684;28;20133;-83
2022/10/06 12:57:53;;;;;;;0.40;0.40;;;19.70;99.90;;;;;;4991619;28;21087;-85
2022/10/06 13:00:43;;;;;;;0.40;0.40;;;19.50;99.90;;;;;;4950174;28;20080;-83
2022/10/06 13:03:18;;;;;;;0.40;0.40;;;19.60;99.90;;;;;;4973186;28;20383;-80
2022/10/06 13:05:54;;;;;;;0.40;0.40;;;19.80;99.90;;;;;;4949621;28;20278;-82
2022/10/06 13:08:26;;;;;;;0.40;0.40;;;19.50;99.90;;;;;;4959678;28;20559;-82
2022/10/06 13:11:20;;;;;;;0.40;0.40;;;19.70;99.90;;;;;;4972841;28;20052;-82
2022/10/06 13:14:12;;;;;;;0.40;0.40;;;19.90;99.90;;;;;;4972372;28;20616;-82
2022/10/06 13:16:46;;;;;;;0.40;0.40;;;19.80;99.90;;;;;;4991127;28;20729;-82
2022/10/06 13:19:23;;;;;;;0.30;0.30;;;19.60;99.90;;;;;;4968280;28;20132;-85
2022/10/06 13:21:49;;;;;;;0.40;0.40;;;19.60;99.90;;;;;;4948046;28;20533;-82
2022/10/06 13:24:22;;;;;;;0.40;0.40;;;19.50;99.90;;;;;;4972593;28;20502;-84
2022/10/06 13:26:48;;;;;;;0.40;0.40;;;19.10;99.90;;;;;;4977678;28;20612;-82
2022/10/06 13:29:23;;;;;;;0.40;0.40;;;19.00;99.90;;;;;;4977509;28;20666;-83
2022/10/06 13:31:54;;;;;;;0.40;0.40;;;18.70;99.90;;;;;;4973557;28;20489;-83
2022/10/06 13:34:34;;;;;;;0.40;0.40;;;19.00;99.90;;;;;;4967630;28;20044;-87